Time;durP1;ratioP1;P1;durP2;ratioP2;P2;SDS_P1;SDS_P2;PMS_P1;PMS_P2;Temp;Humidity;BMP_temperature;BMP_pressure;BME280_temperature;BME280_humidity;BME280_pressure;Samples;Min_cycle;Max_cycle;Signal;HPM_P1;HPM_P2
2023/10/18 00:01:25;;;;;;;33.70;17.88;;;3.50;99.90;;;;;;5113372;28;20568;-60
2023/10/18 00:03:53;;;;;;;38.90;19.73;;;3.50;99.90;;;;;;5114080;28;20195;-60
2023/10/18 00:06:23;;;;;;;37.97;19.50;;;3.50;99.90;;;;;;5113748;28;20196;-60
2023/10/18 00:08:57;;;;;;;45.28;20.30;;;3.50;99.90;;;;;;5113607;28;20661;-60
2023/10/18 00:11:25;;;;;;;44.50;20.77;;;3.50;99.90;;;;;;5113615;28;20307;-60
2023/10/18 00:13:53;;;;;;;38.75;19.45;;;3.50;99.90;;;;;;5113720;28;20203;-60
2023/10/18 00:16:21;;;;;;;47.53;21.38;;;3.50;99.90;;;;;;5113588;28;20306;-61
2023/10/18 00:18:48;;;;;;;40.92;20.23;;;3.40;99.90;;;;;;5114178;28;20196;-60
2023/10/18 00:21:15;;;;;;;44.67;21.58;;;3.40;99.90;;;;;;5113483;28;20728;-60
2023/10/18 00:23:44;;;;;;;37.08;19.10;;;3.40;99.90;;;;;;5113775;28;20199;-61
2023/10/18 00:26:12;;;;;;;38.15;19.95;;;3.40;99.90;;;;;;5114191;28;20202;-60
2023/10/18 00:28:40;;;;;;;42.72;20.70;;;3.40;99.90;;;;;;5117767;28;20543;-60
2023/10/18 00:31:16;;;;;;;38.08;20.90;;;3.40;99.90;;;;;;5117467;28;20223;-60
2023/10/18 00:33:44;;;;;;;39.13;19.55;;;3.30;99.90;;;;;;5117931;28;20191;-61
2023/10/18 00:36:11;;;;;;;35.25;19.70;;;3.30;99.90;;;;;;5117482;28;20700;-59
2023/10/18 00:38:39;;;;;;;36.08;20.25;;;3.20;99.90;;;;;;5117733;28;20252;-60
2023/10/18 00:41:15;;;;;;;40.45;20.48;;;3.20;99.90;;;;;;5117622;28;20215;-59
2023/10/18 00:43:45;;;;;;;35.80;20.35;;;3.20;99.90;;;;;;5117770;28;20622;-60
2023/10/18 00:46:13;;;;;;;41.70;21.33;;;3.10;99.90;;;;;;5117193;28;20196;-61
2023/10/18 00:48:42;;;;;;;42.47;20.65;;;3.10;99.90;;;;;;5117591;28;20210;-60
2023/10/18 00:51:11;;;;;;;39.58;20.13;;;3.10;99.90;;;;;;5117422;28;20219;-60
2023/10/18 00:53:39;;;;;;;43.08;20.10;;;3.10;99.90;;;;;;5117737;28;20207;-60
2023/10/18 00:56:07;;;;;;;45.33;19.33;;;3.10;99.90;;;;;;5117723;28;20582;-60
2023/10/18 00:58:35;;;;;;;40.28;20.60;;;3.00;99.90;;;;;;5117753;28;20199;-60
2023/10/18 01:01:08;;;;;;;39.85;20.17;;;3.00;99.90;;;;;;5118205;28;20204;-60
2023/10/18 01:03:36;;;;;;;40.90;19.35;;;3.00;99.90;;;;;;5118763;28;20192;-60
2023/10/18 01:06:04;;;;;;;37.35;19.48;;;3.00;99.90;;;;;;5119293;28;20199;-61
2023/10/18 01:08:32;;;;;;;41.03;19.05;;;3.00;99.90;;;;;;5118424;28;20207;-61
2023/10/18 01:11:04;;;;;;;31.80;19.33;;;3.10;99.90;;;;;;5117804;28;20215;-60
2023/10/18 01:13:34;;;;;;;40.10;20.67;;;3.00;99.90;;;;;;5118162;28;20278;-60
2023/10/18 01:16:06;;;;;;;42.88;20.20;;;3.00;99.90;;;;;;5118119;28;20257;-61
2023/10/18 01:18:32;;;;;;;44.78;19.05;;;3.00;99.90;;;;;;5118848;28;20176;-60
2023/10/18 01:21:00;;;;;;;40.63;20.15;;;3.00;99.90;;;;;;5119986;28;20195;-59
2023/10/18 01:23:28;;;;;;;40.22;20.77;;;2.90;99.90;;;;;;5118038;28;20200;-62
2023/10/18 01:25:56;;;;;;;41.95;20.60;;;2.90;99.90;;;;;;5117843;28;20665;-59
2023/10/18 01:28:23;;;;;;;36.90;19.42;;;2.90;99.90;;;;;;5120683;28;20564;-60
2023/10/18 01:30:49;;;;;;;43.63;21.23;;;2.90;99.90;;;;;;5117407;28;20661;-60
2023/10/18 01:33:16;;;;;;;42.95;19.75;;;2.90;99.90;;;;;;5117124;28;20587;-60
2023/10/18 01:35:50;;;;;;;38.13;20.27;;;2.90;99.90;;;;;;5116903;28;20210;-60
2023/10/18 01:38:20;;;;;;;37.17;19.70;;;2.90;99.90;;;;;;5116366;28;20577;-60
2023/10/18 01:40:53;;;;;;;37.08;19.73;;;2.80;99.90;;;;;;5115963;28;20199;-60
2023/10/18 01:43:22;;;;;;;43.55;19.17;;;2.80;99.90;;;;;;5116785;28;20180;-60
2023/10/18 01:45:49;;;;;;;37.15;20.25;;;2.80;99.90;;;;;;5117219;28;20199;-60
2023/10/18 01:48:18;;;;;;;41.00;20.90;;;2.80;99.90;;;;;;5116293;28;20664;-59
2023/10/18 01:50:46;;;;;;;34.58;17.58;;;2.80;99.90;;;;;;5118664;28;20239;-61
2023/10/18 01:53:16;;;;;;;43.28;18.92;;;2.70;99.90;;;;;;5116502;28;20206;-60
2023/10/18 01:55:47;;;;;;;35.35;17.55;;;2.70;99.90;;;;;;5116161;28;20734;-60
2023/10/18 01:58:14;;;;;;;35.13;17.73;;;2.70;99.90;;;;;;5116347;28;20200;-60
2023/10/18 02:00:46;;;;;;;36.70;19.02;;;2.70;99.90;;;;;;5116862;28;20556;-60
2023/10/18 02:03:13;;;;;;;38.03;18.88;;;2.70;99.90;;;;;;5116137;28;20661;-59
2023/10/18 02:05:43;;;;;;;39.88;19.95;;;2.70;99.90;;;;;;5116119;28;20253;-60
2023/10/18 02:08:11;;;;;;;37.67;17.90;;;2.60;99.90;;;;;;5116016;28;20196;-59
2023/10/18 02:10:40;;;;;;;33.53;18.02;;;2.60;99.90;;;;;;5115481;28;20593;-60
2023/10/18 02:13:08;;;;;;;38.40;18.73;;;2.60;99.90;;;;;;5115893;28;20223;-60
2023/10/18 02:15:39;;;;;;;38.33;18.20;;;2.60;99.90;;;;;;5116720;28;20207;-60
2023/10/18 02:18:07;;;;;;;37.53;18.42;;;2.50;99.90;;;;;;5115758;28;20790;-59
2023/10/18 02:20:35;;;;;;;40.20;18.55;;;2.50;99.90;;;;;;5115406;28;20641;-60
2023/10/18 02:23:10;;;;;;;42.72;19.40;;;2.50;99.90;;;;;;5115626;28;20311;-60
2023/10/18 02:25:43;;;;;;;39.17;20.10;;;2.50;99.90;;;;;;5115633;28;20183;-60
2023/10/18 02:28:22;;;;;;;37.53;18.95;;;2.50;99.90;;;;;;5115308;28;20637;-61
2023/10/18 02:30:55;;;;;;;36.15;18.70;;;2.50;99.90;;;;;;5116021;28;20204;-60
2023/10/18 02:33:24;;;;;;;46.80;19.08;;;2.50;99.90;;;;;;5115520;28;20197;-60
2023/10/18 02:35:51;;;;;;;34.10;19.20;;;2.50;99.90;;;;;;5115369;28;20196;-60
2023/10/18 02:38:20;;;;;;;34.90;18.05;;;2.50;99.90;;;;;;5127993;28;20211;-60
2023/10/18 02:40:49;;;;;;;31.90;17.70;;;2.50;99.90;;;;;;5135806;28;20204;-60
2023/10/18 02:43:16;;;;;;;38.72;19.50;;;2.50;99.90;;;;;;5115612;28;20631;-60
2023/10/18 02:45:54;;;;;;;39.25;18.92;;;2.50;99.90;;;;;;5115535;28;20199;-60
2023/10/18 02:48:24;;;;;;;36.15;17.08;;;2.50;99.90;;;;;;5115045;28;20649;-60
2023/10/18 02:50:57;;;;;;;36.03;17.15;;;2.40;99.90;;;;;;5113837;28;20180;-60
2023/10/18 02:53:24;;;;;;;37.45;18.73;;;2.40;99.90;;;;;;5115247;28;20215;-60
2023/10/18 02:55:55;;;;;;;32.10;18.20;;;2.40;99.90;;;;;;5115090;28;20690;-60
2023/10/18 02:58:27;;;;;;;32.47;17.85;;;2.40;99.90;;;;;;5115665;28;20256;-60
2023/10/18 03:00:55;;;;;;;32.80;18.15;;;2.30;99.90;;;;;;5115175;28;20191;-60
2023/10/18 03:03:22;;;;;;;32.13;17.42;;;2.30;99.90;;;;;;5115413;28;20202;-60
2023/10/18 03:05:51;;;;;;;33.08;16.70;;;2.30;99.90;;;;;;5114788;28;20239;-60
2023/10/18 03:08:20;;;;;;;37.70;17.83;;;2.30;99.90;;;;;;5114871;28;20245;-59
2023/10/18 03:10:51;;;;;;;36.75;17.55;;;2.20;99.90;;;;;;5114648;28;20207;-60
2023/10/18 03:13:22;;;;;;;36.08;19.25;;;2.20;99.90;;;;;;5114809;28;20180;-59
2023/10/18 03:16:04;;;;;;;35.25;17.15;;;2.30;99.90;;;;;;5114405;28;20660;-61
2023/10/18 03:18:34;;;;;;;29.70;16.95;;;2.20;99.90;;;;;;5114217;28;20676;-60
2023/10/18 03:21:05;;;;;;;40.42;19.27;;;2.20;99.90;;;;;;5114264;28;20208;-60
2023/10/18 03:23:33;;;;;;;30.05;15.65;;;2.20;99.90;;;;;;5114289;28;20672;-60
2023/10/18 03:26:01;;;;;;;31.80;16.70;;;2.20;99.90;;;;;;5114669;28;20199;-59
2023/10/18 03:28:34;;;;;;;31.83;17.60;;;2.10;99.90;;;;;;5114438;28;20282;-59
2023/10/18 03:31:05;;;;;;;33.83;17.10;;;2.10;99.90;;;;;;5113957;28;20633;-59
2023/10/18 03:33:33;;;;;;;37.90;17.67;;;2.10;99.90;;;;;;5114896;28;20275;-60
2023/10/18 03:36:06;;;;;;;35.95;18.00;;;2.10;99.90;;;;;;5114282;28;20279;-60
2023/10/18 03:38:39;;;;;;;35.13;18.67;;;2.10;99.90;;;;;;5114340;28;20259;-59
2023/10/18 03:41:10;;;;;;;37.78;18.75;;;2.00;99.90;;;;;;5114244;28;20220;-59
2023/10/18 03:43:37;;;;;;;32.05;18.17;;;2.00;99.90;;;;;;5114197;28;20192;-59
2023/10/18 03:46:13;;;;;;;37.67;19.08;;;2.00;99.90;;;;;;5114227;28;20290;-59
2023/10/18 03:48:44;;;;;;;37.10;18.85;;;2.00;99.90;;;;;;5113948;28;20680;-59
2023/10/18 03:51:18;;;;;;;39.45;18.88;;;2.10;99.90;;;;;;5114549;28;20220;-60
2023/10/18 03:53:51;;;;;;;43.85;18.40;;;2.10;99.90;;;;;;5113942;28;20244;-59
2023/10/18 03:56:19;;;;;;;36.20;17.63;;;2.20;99.90;;;;;;5113979;28;20183;-60
2023/10/18 03:58:49;;;;;;;36.75;20.05;;;2.10;99.90;;;;;;5114079;28;20215;-60
2023/10/18 04:01:21;;;;;;;41.63;19.83;;;2.10;99.90;;;;;;5114271;28;20726;-60
2023/10/18 04:03:49;;;;;;;44.95;21.08;;;2.10;99.90;;;;;;5113664;28;20192;-59
2023/10/18 04:06:23;;;;;;;34.53;18.20;;;2.10;99.90;;;;;;5113661;28;20210;-59
2023/10/18 04:12:22;;;;;;;46.08;20.02;;;2.10;99.90;;;;;;5091525;27;21017;-60
2023/10/18 04:14:58;;;;;;;40.30;18.60;;;2.10;99.90;;;;;;5090949;28;20207;-60
2023/10/18 04:17:37;;;;;;;34.35;18.20;;;2.10;99.90;;;;;;5093077;28;20189;-58
2023/10/18 04:20:15;;;;;;;39.38;19.88;;;2.10;99.90;;;;;;5096214;28;20181;-60
2023/10/18 04:22:43;;;;;;;32.83;17.52;;;2.10;99.90;;;;;;5101602;28;20274;-60
2023/10/18 04:25:17;;;;;;;44.22;18.75;;;2.10;99.90;;;;;;5094550;28;20235;-60
2023/10/18 04:27:45;;;;;;;35.17;19.65;;;2.10;99.90;;;;;;5090523;28;20726;-59
2023/10/18 04:30:16;;;;;;;40.58;19.10;;;2.20;99.90;;;;;;5090705;28;20204;-60
2023/10/18 04:32:44;;;;;;;40.22;18.63;;;2.20;99.90;;;;;;5090679;28;20269;-59
2023/10/18 04:35:16;;;;;;;43.97;19.92;;;2.30;99.90;;;;;;5090703;28;20288;-61
2023/10/18 04:37:43;;;;;;;74.93;21.73;;;2.40;99.90;;;;;;5090618;28;20189;-59
2023/10/18 04:40:22;;;;;;;86.10;23.10;;;2.40;99.90;;;;;;5090478;28;20208;-60
2023/10/18 04:42:51;;;;;;;62.95;21.33;;;2.50;99.90;;;;;;5090176;28;20701;-61
2023/10/18 04:45:18;;;;;;;139.25;26.02;;;2.50;99.90;;;;;;5090425;28;20201;-59
2023/10/18 04:47:49;;;;;;;58.72;23.30;;;2.50;99.90;;;;;;5090223;28;20200;-59
2023/10/18 04:50:18;;;;;;;61.13;22.60;;;2.50;99.90;;;;;;5090417;28;20189;-60
2023/10/18 04:52:47;;;;;;;72.13;22.27;;;2.50;99.90;;;;;;5090067;28;20216;-60
2023/10/18 04:55:14;;;;;;;58.70;23.50;;;2.50;99.90;;;;;;5090376;28;20200;-61
2023/10/18 04:57:41;;;;;;;42.97;20.92;;;2.50;99.90;;;;;;5090341;28;20196;-58
2023/10/18 05:00:25;;;;;;;43.30;20.52;;;2.50;99.90;;;;;;5090599;28;20236;-59
2023/10/18 05:02:53;;;;;;;56.40;22.52;;;2.60;99.90;;;;;;5090475;28;20357;-59
2023/10/18 05:05:19;;;;;;;43.40;21.50;;;2.60;99.90;;;;;;5090181;28;20201;-60
2023/10/18 05:07:48;;;;;;;50.63;22.33;;;2.60;99.90;;;;;;5090375;28;20201;-59
2023/10/18 05:10:14;;;;;;;46.88;20.45;;;2.70;99.90;;;;;;5089806;28;20262;-60
2023/10/18 05:12:47;;;;;;;38.78;20.88;;;2.60;99.90;;;;;;5089894;28;20225;-60
2023/10/18 05:15:21;;;;;;;61.78;21.83;;;2.70;99.90;;;;;;5090163;28;20217;-59
2023/10/18 05:17:50;;;;;;;49.60;21.67;;;2.70;99.90;;;;;;5090176;28;20195;-59
2023/10/18 05:20:24;;;;;;;59.25;22.45;;;2.80;99.90;;;;;;5091786;28;20208;-59
2023/10/18 05:22:52;;;;;;;154.32;25.15;;;2.80;99.90;;;;;;5081112;28;20256;-60
2023/10/18 05:25:29;;;;;;;121.18;23.00;;;2.80;99.90;;;;;;5075996;28;20674;-59
2023/10/18 05:28:09;;;;;;;80.45;24.30;;;2.70;99.90;;;;;;5076639;28;20189;-59
2023/10/18 05:36:17;;;;;;;123.47;24.17;;;2.70;99.90;;;;;;5064880;28;20193;-59
2023/10/18 05:38:50;;;;;;;73.85;21.60;;;2.70;99.90;;;;;;5076205;28;20185;-62
2023/10/18 05:41:27;;;;;;;76.88;21.90;;;2.60;99.90;;;;;;5076431;28;20223;-61
2023/10/18 05:43:58;;;;;;;77.07;23.25;;;2.60;99.90;;;;;;5076068;28;20177;-61
2023/10/18 05:46:28;;;;;;;98.03;21.40;;;2.60;99.90;;;;;;5075842;28;20605;-60
2023/10/18 05:48:57;;;;;;;66.38;22.17;;;2.60;99.90;;;;;;5076351;28;20634;-60
2023/10/18 05:51:26;;;;;;;56.80;20.92;;;2.60;99.90;;;;;;5081573;28;20576;-60
2023/10/18 05:53:57;;;;;;;96.90;25.40;;;2.70;99.90;;;;;;5090812;28;20216;-59
2023/10/18 05:56:29;;;;;;;53.60;21.98;;;2.70;99.90;;;;;;5082200;28;20185;-60
2023/10/18 05:59:16;;;;;;;64.10;21.65;;;2.80;99.90;;;;;;5076017;28;20189;-60
2023/10/18 06:01:45;;;;;;;53.80;22.98;;;2.80;99.90;;;;;;5075515;28;20298;-58
2023/10/18 06:04:12;;;;;;;58.30;22.80;;;2.90;99.90;;;;;;5076164;28;20201;-60
2023/10/18 06:06:39;;;;;;;48.35;22.02;;;2.90;99.90;;;;;;5075454;28;20197;-60
2023/10/18 06:09:10;;;;;;;81.82;25.35;;;2.90;99.90;;;;;;5075292;28;20291;-60
2023/10/18 06:11:38;;;;;;;81.80;24.77;;;3.00;99.90;;;;;;5074794;28;20224;-60
2023/10/18 06:14:07;;;;;;;59.03;22.55;;;3.00;99.90;;;;;;5077174;28;20201;-60
2023/10/18 06:16:34;;;;;;;52.15;22.40;;;3.00;99.90;;;;;;5085865;28;20205;-60
2023/10/18 06:19:06;;;;;;;53.88;21.67;;;3.10;99.90;;;;;;5080001;28;20223;-59
2023/10/18 06:21:36;;;;;;;55.33;23.10;;;3.20;99.90;;;;;;5076779;28;20213;-60
2023/10/18 06:24:09;;;;;;;47.85;21.35;;;3.20;99.90;;;;;;5075814;28;20236;-60
2023/10/18 06:26:36;;;;;;;46.30;22.75;;;3.30;99.90;;;;;;5076330;28;20204;-59
2023/10/18 06:29:08;;;;;;;60.60;24.58;;;3.30;99.90;;;;;;5076928;28;20597;-60
2023/10/18 06:31:39;;;;;;;59.35;24.63;;;3.30;99.90;;;;;;5075933;28;20232;-58
2023/10/18 06:34:15;;;;;;;64.85;23.88;;;3.40;99.90;;;;;;5074360;28;20189;-60
2023/10/18 06:36:42;;;;;;;53.28;21.40;;;3.40;99.90;;;;;;5075003;28;20219;-59
2023/10/18 06:39:16;;;;;;;58.17;24.27;;;3.40;99.90;;;;;;5075282;28;20710;-60
2023/10/18 06:41:43;;;;;;;51.67;22.65;;;3.40;99.90;;;;;;5074707;28;20272;-59
2023/10/18 06:44:11;;;;;;;55.03;22.17;;;3.50;99.90;;;;;;5074687;28;20209;-60
2023/10/18 06:46:38;;;;;;;41.10;23.00;;;3.60;99.90;;;;;;5074562;28;20213;-59
2023/10/18 06:49:10;;;;;;;50.70;21.40;;;3.60;99.90;;;;;;5075085;28;20201;-61
2023/10/18 06:51:41;;;;;;;52.85;24.65;;;3.60;99.90;;;;;;5074652;28;20278;-60
2023/10/18 06:54:13;;;;;;;54.15;23.10;;;3.70;99.90;;;;;;5076533;28;20185;-60
2023/10/18 06:56:40;;;;;;;47.92;22.75;;;3.70;99.90;;;;;;5075383;28;20274;-58
2023/10/18 06:59:07;;;;;;;48.70;23.60;;;3.70;99.90;;;;;;5074302;28;20205;-61
2023/10/18 07:01:41;;;;;;;46.25;23.35;;;3.70;99.90;;;;;;5074361;28;20311;-60
2023/10/18 07:04:18;;;;;;;40.92;21.52;;;3.70;99.90;;;;;;5075299;28;20184;-60
2023/10/18 07:06:46;;;;;;;52.05;27.90;;;3.80;99.90;;;;;;5078211;28;20628;-60
2023/10/18 07:09:25;;;;;;;51.65;24.90;;;3.80;99.90;;;;;;5079986;28;20189;-60
2023/10/18 07:11:52;;;;;;;54.97;24.85;;;3.90;99.90;;;;;;5074251;28;20251;-60
2023/10/18 07:14:20;;;;;;;49.80;24.15;;;3.90;99.90;;;;;;5075543;28;20212;-60
2023/10/18 07:16:48;;;;;;;41.63;23.35;;;3.90;99.90;;;;;;5074712;28;20200;-60
2023/10/18 07:19:29;;;;;;;48.35;25.02;;;4.00;99.90;;;;;;5074976;28;20201;-59
2023/10/18 07:21:58;;;;;;;48.67;24.75;;;4.00;99.90;;;;;;5074393;28;20576;-60
2023/10/18 07:24:32;;;;;;;50.03;24.05;;;4.00;99.90;;;;;;5074246;28;20672;-59
2023/10/18 07:27:00;;;;;;;41.97;24.60;;;4.10;99.90;;;;;;5074937;28;20185;-60
2023/10/18 07:29:31;;;;;;;50.20;25.35;;;4.10;99.90;;;;;;5074425;28;20250;-60
2023/10/18 07:31:59;;;;;;;46.35;24.10;;;4.20;99.90;;;;;;5073534;28;20710;-60
2023/10/18 07:34:31;;;;;;;51.40;27.23;;;4.30;99.90;;;;;;5078107;28;20201;-60
2023/10/18 07:37:16;;;;;;;54.28;25.83;;;4.40;99.90;;;;;;5078054;28;20370;-60
2023/10/18 07:39:44;;;;;;;55.65;27.67;;;4.40;99.90;;;;;;5076920;28;20186;-59
2023/10/18 07:42:12;;;;;;;46.85;27.17;;;4.60;99.90;;;;;;5077541;28;20263;-61
2023/10/18 07:44:43;;;;;;;50.08;27.45;;;4.60;99.90;;;;;;5077523;28;20254;-60
2023/10/18 07:47:17;;;;;;;51.42;25.00;;;4.70;99.90;;;;;;5077128;28;20185;-60
2023/10/18 07:49:45;;;;;;;55.20;29.25;;;4.80;99.90;;;;;;5078131;28;20739;-60
2023/10/18 07:52:13;;;;;;;46.15;26.70;;;4.80;99.90;;;;;;5082049;28;20224;-61
2023/10/18 07:54:40;;;;;;;49.38;27.23;;;4.90;99.90;;;;;;5081859;28;20211;-60
2023/10/18 07:57:15;;;;;;;47.80;28.00;;;5.00;99.90;;;;;;5078176;28;20308;-60
2023/10/18 07:59:46;;;;;;;42.35;26.15;;;5.10;99.90;;;;;;5077557;28;20193;-61
2023/10/18 08:02:13;;;;;;;48.53;25.42;;;5.10;99.90;;;;;;5079806;28;20224;-62
2023/10/18 08:04:42;;;;;;;48.63;26.23;;;5.30;99.90;;;;;;5081008;28;20213;-61
2023/10/18 08:07:12;;;;;;;35.72;24.83;;;5.40;99.90;;;;;;5080415;28;20210;-61
2023/10/18 08:09:41;;;;;;;39.38;24.95;;;5.50;99.90;;;;;;5077395;28;20205;-61
2023/10/18 08:12:08;;;;;;;36.10;23.23;;;5.60;99.90;;;;;;5076246;28;20225;-60
2023/10/18 08:14:36;;;;;;;36.90;23.35;;;5.60;99.90;;;;;;5076031;28;20217;-60
2023/10/18 08:17:09;;;;;;;35.88;25.10;;;5.60;99.90;;;;;;5075815;28;20689;-61
2023/10/18 08:19:44;;;;;;;34.85;22.55;;;5.70;99.90;;;;;;5076040;28;20185;-60
2023/10/18 08:22:22;;;;;;;34.75;24.60;;;5.80;99.90;;;;;;5075113;28;20564;-60
2023/10/18 08:24:50;;;;;;;32.08;21.92;;;5.80;99.90;;;;;;5075516;28;20187;-59
2023/10/18 08:27:18;;;;;;;42.22;24.45;;;5.90;99.90;;;;;;5076130;28;20311;-61
2023/10/18 08:29:47;;;;;;;34.90;23.05;;;5.90;99.90;;;;;;5075713;28;20240;-61
2023/10/18 08:32:16;;;;;;;34.40;21.60;;;6.00;99.90;;;;;;5076513;28;20230;-60
2023/10/18 08:34:44;;;;;;;32.17;23.05;;;6.10;99.90;;;;;;5076840;28;20198;-60
2023/10/18 08:37:13;;;;;;;32.15;21.48;;;6.20;99.90;;;;;;5075690;28;20209;-60
2023/10/18 08:39:40;;;;;;;32.25;20.33;;;6.30;99.90;;;;;;5074840;28;20201;-61
2023/10/18 08:42:11;;;;;;;34.30;21.25;;;6.30;99.90;;;;;;5073829;28;20218;-61
2023/10/18 08:44:39;;;;;;;27.58;18.90;;;6.40;99.90;;;;;;5074847;28;20212;-59
2023/10/18 08:47:13;;;;;;;25.38;19.67;;;6.50;99.90;;;;;;5075510;28;20213;-59
2023/10/18 08:49:50;;;;;;;28.40;19.27;;;6.50;99.90;;;;;;5075656;28;20192;-60
2023/10/18 08:52:20;;;;;;;26.33;17.50;;;6.60;99.90;;;;;;5076325;28;20256;-60
2023/10/18 08:54:48;;;;;;;27.60;18.58;;;6.70;99.90;;;;;;5075407;28;20189;-60
2023/10/18 08:57:24;;;;;;;25.08;18.42;;;6.80;99.90;;;;;;5076307;28;20212;-60
2023/10/18 08:59:51;;;;;;;27.65;18.05;;;6.90;99.90;;;;;;5079264;28;20205;-60
2023/10/18 09:02:18;;;;;;;25.15;17.20;;;7.00;99.90;;;;;;5078212;28;20266;-61
2023/10/18 09:04:46;;;;;;;25.08;17.45;;;7.10;99.90;;;;;;5079518;28;20217;-61
2023/10/18 09:07:19;;;;;;;23.25;17.15;;;7.20;99.90;;;;;;5079584;28;20201;-61
2023/10/18 09:09:55;;;;;;;23.38;15.93;;;7.30;99.90;;;;;;5079477;28;20211;-60
2023/10/18 09:15:29;;;;;;;17.95;13.60;;;7.40;99.90;;;;;;5077898;28;20557;-59
2023/10/18 09:17:56;;;;;;;20.00;14.35;;;7.40;99.90;;;;;;5078497;28;20193;-61
2023/10/18 09:20:26;;;;;;;24.23;15.55;;;7.40;99.90;;;;;;5076621;28;20264;-60
2023/10/18 09:22:53;;;;;;;22.40;15.50;;;7.60;99.90;;;;;;5077011;28;20217;-61
2023/10/18 09:25:24;;;;;;;21.30;15.10;;;7.60;99.90;;;;;;5076911;28;20199;-60
2023/10/18 09:27:52;;;;;;;21.92;15.55;;;7.70;99.90;;;;;;5077447;28;20310;-61
2023/10/18 09:30:20;;;;;;;20.67;15.43;;;7.90;99.90;;;;;;5077168;28;20200;-61
2023/10/18 09:32:49;;;;;;;20.73;15.70;;;8.00;99.90;;;;;;5076762;28;20216;-61
2023/10/18 09:35:25;;;;;;;21.33;14.95;;;8.10;99.90;;;;;;5076831;28;20227;-60
2023/10/18 09:37:53;;;;;;;18.70;14.32;;;8.20;99.90;;;;;;5077095;28;20234;-59
2023/10/18 09:40:19;;;;;;;20.67;14.68;;;8.30;99.90;;;;;;5076459;28;20201;-60
2023/10/18 09:42:46;;;;;;;20.35;13.68;;;8.30;99.90;;;;;;5076648;28;20217;-61
2023/10/18 09:45:20;;;;;;;22.85;14.82;;;8.40;99.90;;;;;;5076298;28;20703;-60
2023/10/18 09:47:47;;;;;;;21.35;14.98;;;8.50;99.90;;;;;;5076927;28;20615;-61
2023/10/18 09:50:23;;;;;;;16.63;12.95;;;8.60;99.90;;;;;;5076818;28;20201;-61
2023/10/18 09:52:56;;;;;;;17.27;13.02;;;8.70;99.90;;;;;;5076681;28;20221;-61
2023/10/18 09:55:26;;;;;;;22.17;15.00;;;8.90;99.90;;;;;;5077071;28;20181;-61
2023/10/18 09:58:02;;;;;;;16.15;12.95;;;8.90;99.90;;;;;;5079849;28;20197;-62
2023/10/18 10:00:33;;;;;;;17.73;13.55;;;9.10;99.90;;;;;;5081206;28;20181;-60
2023/10/18 10:03:08;;;;;;;15.10;13.13;;;9.20;99.90;;;;;;5077114;28;20221;-62
2023/10/18 10:05:41;;;;;;;18.42;13.38;;;9.20;99.90;;;;;;5076102;28;20202;-61
2023/10/18 10:08:08;;;;;;;20.90;13.88;;;9.30;99.90;;;;;;5077537;28;20186;-61
2023/10/18 10:10:44;;;;;;;21.83;14.48;;;9.40;99.90;;;;;;5076636;28;20224;-60
2023/10/18 10:13:18;;;;;;;18.67;14.10;;;9.50;99.90;;;;;;5081319;28;20235;-60
2023/10/18 10:15:48;;;;;;;16.73;11.50;;;9.50;99.90;;;;;;5090648;28;20219;-61
2023/10/18 10:18:18;;;;;;;18.97;13.03;;;9.60;99.90;;;;;;5086480;28;20482;-60
2023/10/18 10:20:48;;;;;;;16.80;13.10;;;9.80;99.90;;;;;;5078165;28;20493;-61
2023/10/18 10:23:18;;;;;;;16.57;12.33;;;9.90;99.90;;;;;;5077233;28;20523;-61
2023/10/18 10:26:11;;;;;;;14.33;12.13;;;9.90;99.90;;;;;;5075934;28;20798;-58
2023/10/18 10:31:50;;;;;;;16.23;12.00;;;10.10;99.90;;;;;;5076631;28;20443;-61
2023/10/18 10:34:19;;;;;;;16.10;11.83;;;10.10;99.90;;;;;;5076326;28;20420;-62
2023/10/18 10:36:51;;;;;;;15.77;11.77;;;10.20;99.90;;;;;;5076654;28;20481;-61
2023/10/18 10:39:31;;;;;;;15.23;11.73;;;10.30;99.90;;;;;;5076945;28;20469;-63
2023/10/18 10:42:08;;;;;;;14.33;11.23;;;10.40;99.90;;;;;;5078527;28;20462;-61
2023/10/18 10:44:57;;;;;;;16.70;10.73;;;10.50;99.90;;;;;;5079663;28;20429;-61
2023/10/18 10:47:32;;;;;;;14.80;11.70;;;10.50;99.90;;;;;;5077322;28;20448;-61
2023/10/18 10:50:00;;;;;;;14.57;10.57;;;10.70;99.90;;;;;;5078014;28;20415;-60
2023/10/18 10:52:30;;;;;;;12.20;9.70;;;10.70;99.90;;;;;;5077671;28;20518;-61
2023/10/18 10:55:04;;;;;;;12.83;9.57;;;10.70;99.90;;;;;;5082778;28;20481;-62
2023/10/18 10:57:35;;;;;;;16.87;9.80;;;10.70;99.90;;;;;;5078590;28;20463;-60
2023/10/18 11:00:22;;;;;;;11.67;9.90;;;10.70;99.90;;;;;;5080729;28;20424;-61
2023/10/18 11:02:54;;;;;;;13.23;9.50;;;10.80;99.90;;;;;;5079908;28;21035;-60
2023/10/18 11:05:24;;;;;;;13.27;9.73;;;10.80;99.90;;;;;;5076436;28;20428;-59
2023/10/18 11:07:54;;;;;;;14.50;10.00;;;10.90;99.90;;;;;;5076066;28;20894;-60
2023/10/18 11:10:21;;;;;;;12.20;10.17;;;11.00;99.90;;;;;;5077038;28;20538;-61
2023/10/18 11:12:48;;;;;;;12.50;9.13;;;11.10;99.90;;;;;;5076307;28;20486;-61
2023/10/18 11:15:17;;;;;;;16.20;9.60;;;11.10;99.90;;;;;;5076555;28;20451;-60
2023/10/18 11:17:47;;;;;;;11.27;8.90;;;11.10;99.90;;;;;;5075705;28;20626;-60
2023/10/18 11:20:29;;;;;;;11.10;9.13;;;11.10;99.90;;;;;;5075699;28;20450;-57
2023/10/18 11:22:56;;;;;;;12.87;9.63;;;11.20;99.90;;;;;;5075061;28;20957;-61
2023/10/18 11:25:31;;;;;;;12.80;9.43;;;11.40;99.90;;;;;;5075207;28;20933;-60
2023/10/18 11:28:17;;;;;;;12.90;9.10;;;11.50;99.90;;;;;;5074868;28;20803;-60
2023/10/18 11:30:44;;;;;;;10.17;8.97;;;11.60;99.90;;;;;;5074812;28;20491;-60
2023/10/18 11:33:17;;;;;;;10.30;8.87;;;11.50;99.90;;;;;;5074545;28;20523;-61
2023/10/18 11:35:49;;;;;;;12.80;9.60;;;11.50;99.10;;;;;;5074685;28;20439;-61
2023/10/18 11:38:19;;;;;;;9.13;8.00;;;11.60;98.00;;;;;;5076446;28;20435;-61
2023/10/18 11:40:50;;;;;;;10.23;8.40;;;11.50;96.70;;;;;;5074981;28;20468;-61
2023/10/18 11:43:25;;;;;;;15.73;8.10;;;11.60;96.00;;;;;;5074417;28;20427;-60
2023/10/18 11:46:05;;;;;;;11.07;7.90;;;11.60;95.50;;;;;;5075516;28;20888;-60
2023/10/18 11:48:35;;;;;;;9.07;6.87;;;11.60;93.70;;;;;;5074922;28;20913;-62
2023/10/18 11:51:06;;;;;;;9.30;7.57;;;11.60;92.80;;;;;;5074888;28;20441;-61
2023/10/18 11:53:35;;;;;;;12.50;7.43;;;11.60;91.80;;;;;;5075624;28;20525;-62
2023/10/18 11:56:05;;;;;;;8.40;6.47;;;11.60;91.40;;;;;;5075684;28;20972;-62
2023/10/18 11:58:34;;;;;;;11.50;8.20;;;11.70;90.70;;;;;;5075478;28;20821;-62
2023/10/18 12:01:02;;;;;;;9.30;6.73;;;11.70;90.30;;;;;;5076241;28;20440;-61
2023/10/18 12:03:29;;;;;;;9.30;7.23;;;11.80;90.10;;;;;;5074616;28;20503;-62
2023/10/18 12:05:56;;;;;;;8.07;6.83;;;11.80;89.80;;;;;;5074816;28;20450;-61
2023/10/18 12:08:30;;;;;;;9.17;6.30;;;11.90;89.50;;;;;;5075071;28;20441;-62
2023/10/18 12:10:57;;;;;;;7.33;5.70;;;12.00;88.60;;;;;;5075658;28;20519;-60
2023/10/18 12:13:24;;;;;;;17.53;6.40;;;12.00;87.30;;;;;;5075946;28;20510;-60
2023/10/18 12:15:52;;;;;;;11.37;6.77;;;12.10;85.60;;;;;;5076909;28;20452;-63
2023/10/18 12:18:21;;;;;;;8.10;5.97;;;12.10;84.70;;;;;;5080352;28;20468;-61
2023/10/18 12:20:51;;;;;;;7.07;5.50;;;12.20;83.80;;;;;;5077392;28;20818;-62
2023/10/18 12:23:19;;;;;;;8.57;6.10;;;12.30;82.90;;;;;;5074845;28;20802;-62
2023/10/18 12:25:47;;;;;;;8.67;6.10;;;12.30;82.20;;;;;;5075860;28;20760;-61
2023/10/18 12:28:18;;;;;;;7.83;5.93;;;12.30;80.90;;;;;;5077279;28;20454;-62
2023/10/18 12:30:51;;;;;;;6.90;6.20;;;12.20;80.40;;;;;;5076235;28;20444;-59
2023/10/18 12:33:23;;;;;;;10.43;7.20;;;12.30;80.60;;;;;;5077587;28;20989;-61
2023/10/18 12:35:52;;;;;;;6.73;6.00;;;12.30;79.30;;;;;;5079160;28;20437;-61
2023/10/18 12:38:31;;;;;;;8.00;6.47;;;12.30;79.00;;;;;;5081665;28;20446;-61
2023/10/18 12:40:59;;;;;;;8.50;6.40;;;12.30;79.10;;;;;;5080226;28;20434;-63
2023/10/18 12:43:31;;;;;;;7.60;5.87;;;12.30;78.70;;;;;;5081702;28;20435;-61
2023/10/18 12:46:00;;;;;;;6.63;5.77;;;12.30;78.10;;;;;;5081069;28;20429;-62
2023/10/18 12:48:28;;;;;;;8.07;5.77;;;12.30;77.60;;;;;;5079385;28;20856;-62
2023/10/18 12:50:57;;;;;;;10.27;5.73;;;12.30;77.40;;;;;;5080555;28;20440;-62
2023/10/18 12:56:23;;;;;;;6.63;6.03;;;12.30;77.10;;;;;;5076267;28;20483;-59
2023/10/18 12:58:54;;;;;;;8.03;6.40;;;12.30;76.90;;;;;;5079706;28;20455;-61
2023/10/18 13:01:22;;;;;;;7.60;5.40;;;12.30;77.00;;;;;;5078978;28;20464;-62
2023/10/18 13:03:56;;;;;;;7.23;6.23;;;12.30;76.70;;;;;;5078329;28;20441;-61
2023/10/18 13:06:30;;;;;;;7.27;5.70;;;12.40;76.50;;;;;;5078609;28;20439;-62
2023/10/18 13:09:15;;;;;;;6.43;5.83;;;12.40;76.20;;;;;;5078348;28;20423;-62
2023/10/18 13:11:47;;;;;;;9.50;6.77;;;12.40;75.90;;;;;;5077568;28;21002;-61
2023/10/18 13:14:15;;;;;;;7.07;5.90;;;12.40;75.50;;;;;;5077429;28;20545;-61